METAR Data
IDs: Format: Raw Decoded Include TAF

Data at: 2110 UTC 23 Oct 2021

SADF 232100Z 20012KT 170V230 9999 FEW040TCU 21/08 Q1007